sensor_id;sensor_type;location;lat;lon;timestamp;pressure;altitude;pressure_sealevel;temperature
20092;BMP180;10205;49.678;6.560;2023-04-03T00:01:05;100934.00;;;10.80
20092;BMP180;10205;49.678;6.560;2023-04-03T00:03:33;100932.00;;;10.70
20092;BMP180;10205;49.678;6.560;2023-04-03T00:06:02;100922.00;;;10.80
20092;BMP180;10205;49.678;6.560;2023-04-03T00:08:29;100920.00;;;10.70
20092;BMP180;10205;49.678;6.560;2023-04-03T00:10:58;100920.00;;;10.70
20092;BMP180;10205;49.678;6.560;2023-04-03T00:13:25;100916.00;;;10.70
20092;BMP180;10205;49.678;6.560;2023-04-03T00:15:53;100910.00;;;10.70
20092;BMP180;10205;49.678;6.560;2023-04-03T00:18:21;100921.00;;;10.60
20092;BMP180;10205;49.678;6.560;2023-04-03T00:20:49;100917.00;;;10.60
20092;BMP180;10205;49.678;6.560;2023-04-03T00:23:17;100920.00;;;10.60
20092;BMP180;10205;49.678;6.560;2023-04-03T00:25:44;100915.00;;;10.60
20092;BMP180;10205;49.678;6.560;2023-04-03T00:28:12;100916.00;;;10.60
20092;BMP180;10205;49.678;6.560;2023-04-03T00:30:39;100916.00;;;10.60
20092;BMP180;10205;49.678;6.560;2023-04-03T00:33:06;100918.00;;;10.60
20092;BMP180;10205;49.678;6.560;2023-04-03T00:35:35;100912.00;;;10.60
20092;BMP180;10205;49.678;6.560;2023-04-03T00:38:02;100915.00;;;10.60
20092;BMP180;10205;49.678;6.560;2023-04-03T00:40:35;100922.00;;;10.60
20092;BMP180;10205;49.678;6.560;2023-04-03T00:43:12;100916.00;;;10.60
20092;BMP180;10205;49.678;6.560;2023-04-03T00:45:43;100914.00;;;10.60
20092;BMP180;10205;49.678;6.560;2023-04-03T00:48:15;100912.00;;;10.60
20092;BMP180;10205;49.678;6.560;2023-04-03T00:50:46;100907.00;;;10.60
20092;BMP180;10205;49.678;6.560;2023-04-03T00:53:22;100904.00;;;10.60
20092;BMP180;10205;49.678;6.560;2023-04-03T00:55:52;100908.00;;;10.60
20092;BMP180;10205;49.678;6.560;2023-04-03T00:58:28;100911.00;;;10.60
20092;BMP180;10205;49.678;6.560;2023-04-03T01:01:04;100906.00;;;10.50
20092;BMP180;10205;49.678;6.560;2023-04-03T01:03:33;100909.00;;;10.50
20092;BMP180;10205;49.678;6.560;2023-04-03T01:06:02;100911.00;;;10.50
20092;BMP180;10205;49.678;6.560;2023-04-03T01:08:30;100904.00;;;10.50
20092;BMP180;10205;49.678;6.560;2023-04-03T01:10:57;100914.00;;;10.50
20092;BMP180;10205;49.678;6.560;2023-04-03T01:13:27;100907.00;;;10.50
20092;BMP180;10205;49.678;6.560;2023-04-03T01:15:55;100913.00;;;10.50
20092;BMP180;10205;49.678;6.560;2023-04-03T01:18:24;100905.00;;;10.50
20092;BMP180;10205;49.678;6.560;2023-04-03T01:24:34;100908.00;;;10.50
20092;BMP180;10205;49.678;6.560;2023-04-03T01:27:07;100900.00;;;10.50
20092;BMP180;10205;49.678;6.560;2023-04-03T01:29:40;100910.00;;;10.50
20092;BMP180;10205;49.678;6.560;2023-04-03T01:32:10;100921.00;;;10.50
20092;BMP180;10205;49.678;6.560;2023-04-03T01:34:38;100918.00;;;10.50
20092;BMP180;10205;49.678;6.560;2023-04-03T01:37:05;100912.00;;;10.50
20092;BMP180;10205;49.678;6.560;2023-04-03T01:39:32;100918.00;;;10.50
20092;BMP180;10205;49.678;6.560;2023-04-03T01:42:00;100916.00;;;10.50
20092;BMP180;10205;49.678;6.560;2023-04-03T01:44:28;100915.00;;;10.50
20092;BMP180;10205;49.678;6.560;2023-04-03T01:46:55;100913.00;;;10.50
20092;BMP180;10205;49.678;6.560;2023-04-03T01:49:24;100914.00;;;10.50
20092;BMP180;10205;49.678;6.560;2023-04-03T01:51:51;100917.00;;;10.50
20092;BMP180;10205;49.678;6.560;2023-04-03T01:54:18;100920.00;;;10.50
20092;BMP180;10205;49.678;6.560;2023-04-03T01:56:46;100924.00;;;10.60
20092;BMP180;10205;49.678;6.560;2023-04-03T01:59:13;100925.00;;;10.50
20092;BMP180;10205;49.678;6.560;2023-04-03T02:01:43;100919.00;;;10.50
20092;BMP180;10205;49.678;6.560;2023-04-03T02:04:11;100910.00;;;10.50
20092;BMP180;10205;49.678;6.560;2023-04-03T02:06:39;100926.00;;;10.50
20092;BMP180;10205;49.678;6.560;2023-04-03T02:09:06;100917.00;;;10.50
20092;BMP180;10205;49.678;6.560;2023-04-03T02:11:33;100909.00;;;10.50
20092;BMP180;10205;49.678;6.560;2023-04-03T02:14:01;100923.00;;;10.50
20092;BMP180;10205;49.678;6.560;2023-04-03T02:16:28;100924.00;;;10.50
20092;BMP180;10205;49.678;6.560;2023-04-03T02:18:56;100944.00;;;10.50
20092;BMP180;10205;49.678;6.560;2023-04-03T02:21:23;100921.00;;;10.50
20092;BMP180;10205;49.678;6.560;2023-04-03T02:23:52;100920.00;;;10.50
20092;BMP180;10205;49.678;6.560;2023-04-03T02:26:19;100932.00;;;10.40
20092;BMP180;10205;49.678;6.560;2023-04-03T02:28:47;100925.00;;;10.40
20092;BMP180;10205;49.678;6.560;2023-04-03T02:31:14;100928.00;;;10.40
20092;BMP180;10205;49.678;6.560;2023-04-03T02:33:41;100919.00;;;10.40
20092;BMP180;10205;49.678;6.560;2023-04-03T02:36:09;100915.00;;;10.40
20092;BMP180;10205;49.678;6.560;2023-04-03T02:38:36;100913.00;;;10.40
20092;BMP180;10205;49.678;6.560;2023-04-03T02:41:10;100917.00;;;10.30
20092;BMP180;10205;49.678;6.560;2023-04-03T02:43:38;100917.00;;;10.30
20092;BMP180;10205;49.678;6.560;2023-04-03T02:46:06;100912.00;;;10.30
20092;BMP180;10205;49.678;6.560;2023-04-03T02:48:33;100923.00;;;10.30
20092;BMP180;10205;49.678;6.560;2023-04-03T02:51:01;100917.00;;;10.30
20092;BMP180;10205;49.678;6.560;2023-04-03T02:53:28;100920.00;;;10.20
20092;BMP180;10205;49.678;6.560;2023-04-03T02:55:55;100921.00;;;10.20
20092;BMP180;10205;49.678;6.560;2023-04-03T02:58:24;100914.00;;;10.20
20092;BMP180;10205;49.678;6.560;2023-04-03T03:00:51;100917.00;;;10.20
20092;BMP180;10205;49.678;6.560;2023-04-03T03:03:18;100916.00;;;10.10
20092;BMP180;10205;49.678;6.560;2023-04-03T03:05:45;100930.00;;;10.10
20092;BMP180;10205;49.678;6.560;2023-04-03T03:08:13;100929.00;;;10.10
20092;BMP180;10205;49.678;6.560;2023-04-03T03:10:41;100924.00;;;10.00
20092;BMP180;10205;49.678;6.560;2023-04-03T03:13:08;100923.00;;;10.00
20092;BMP180;10205;49.678;6.560;2023-04-03T03:15:36;100919.00;;;10.00
20092;BMP180;10205;49.678;6.560;2023-04-03T03:18:04;100921.00;;;10.00
20092;BMP180;10205;49.678;6.560;2023-04-03T03:20:31;100927.00;;;9.90
20092;BMP180;10205;49.678;6.560;2023-04-03T03:22:58;100921.00;;;9.90
20092;BMP180;10205;49.678;6.560;2023-04-03T03:25:25;100926.00;;;9.90
20092;BMP180;10205;49.678;6.560;2023-04-03T03:27:53;100933.00;;;9.80
20092;BMP180;10205;49.678;6.560;2023-04-03T03:30:20;100926.00;;;9.80
20092;BMP180;10205;49.678;6.560;2023-04-03T03:32:48;100916.00;;;9.80
20092;BMP180;10205;49.678;6.560;2023-04-03T03:35:16;100926.00;;;9.80
20092;BMP180;10205;49.678;6.560;2023-04-03T03:37:43;100926.00;;;9.70
20092;BMP180;10205;49.678;6.560;2023-04-03T03:40:11;100927.00;;;9.70
20092;BMP180;10205;49.678;6.560;2023-04-03T03:42:39;100926.00;;;9.70
20092;BMP180;10205;49.678;6.560;2023-04-03T03:45:08;100918.00;;;9.60
20092;BMP180;10205;49.678;6.560;2023-04-03T03:47:36;100911.00;;;9.60
20092;BMP180;10205;49.678;6.560;2023-04-03T03:50:06;100915.00;;;9.60
20092;BMP180;10205;49.678;6.560;2023-04-03T03:52:33;100925.00;;;9.60
20092;BMP180;10205;49.678;6.560;2023-04-03T03:55:01;100900.00;;;9.50
20092;BMP180;10205;49.678;6.560;2023-04-03T03:57:28;100905.00;;;9.50
20092;BMP180;10205;49.678;6.560;2023-04-03T03:59:56;100901.00;;;9.50
20092;BMP180;10205;49.678;6.560;2023-04-03T04:02:23;100911.00;;;9.40
20092;BMP180;10205;49.678;6.560;2023-04-03T04:04:52;100908.00;;;9.40
20092;BMP180;10205;49.678;6.560;2023-04-03T04:07:21;100904.00;;;9.30
20092;BMP180;10205;49.678;6.560;2023-04-03T04:09:48;100915.00;;;9.30
20092;BMP180;10205;49.678;6.560;2023-04-03T04:12:15;100910.00;;;9.30
20092;BMP180;10205;49.678;6.560;2023-04-03T04:14:43;100915.00;;;9.30
20092;BMP180;10205;49.678;6.560;2023-04-03T04:17:12;100909.00;;;9.20
20092;BMP180;10205;49.678;6.560;2023-04-03T04:19:41;100918.00;;;9.20
20092;BMP180;10205;49.678;6.560;2023-04-03T04:22:08;100912.00;;;9.20
20092;BMP180;10205;49.678;6.560;2023-04-03T04:24:37;100915.00;;;9.20
20092;BMP180;10205;49.678;6.560;2023-04-03T04:27:04;100919.00;;;9.10
20092;BMP180;10205;49.678;6.560;2023-04-03T04:29:31;100907.00;;;9.10
20092;BMP180;10205;49.678;6.560;2023-04-03T04:32:02;100914.00;;;9.10
20092;BMP180;10205;49.678;6.560;2023-04-03T04:34:29;100933.00;;;9.10
20092;BMP180;10205;49.678;6.560;2023-04-03T04:36:56;100908.00;;;9.00
20092;BMP180;10205;49.678;6.560;2023-04-03T04:39:23;100910.00;;;9.00
20092;BMP180;10205;49.678;6.560;2023-04-03T04:41:52;100912.00;;;9.00
20092;BMP180;10205;49.678;6.560;2023-04-03T04:44:19;100913.00;;;9.00
20092;BMP180;10205;49.678;6.560;2023-04-03T04:46:47;100913.00;;;8.90
20092;BMP180;10205;49.678;6.560;2023-04-03T04:49:14;100915.00;;;8.90
20092;BMP180;10205;49.678;6.560;2023-04-03T04:51:41;100915.00;;;8.90
20092;BMP180;10205;49.678;6.560;2023-04-03T04:54:10;100916.00;;;8.90
20092;BMP180;10205;49.678;6.560;2023-04-03T04:56:39;100915.00;;;8.80
20092;BMP180;10205;49.678;6.560;2023-04-03T04:59:07;100913.00;;;8.80
20092;BMP180;10205;49.678;6.560;2023-04-03T05:01:34;100912.00;;;8.70
20092;BMP180;10205;49.678;6.560;2023-04-03T05:04:02;100920.00;;;8.70
20092;BMP180;10205;49.678;6.560;2023-04-03T05:06:29;100926.00;;;8.70
20092;BMP180;10205;49.678;6.560;2023-04-03T05:08:57;100930.00;;;8.70
20092;BMP180;10205;49.678;6.560;2023-04-03T05:11:24;100927.00;;;8.60
20092;BMP180;10205;49.678;6.560;2023-04-03T05:13:52;100934.00;;;8.60
20092;BMP180;10205;49.678;6.560;2023-04-03T05:16:20;100937.00;;;8.60
20092;BMP180;10205;49.678;6.560;2023-04-03T05:18:48;100928.00;;;8.50
20092;BMP180;10205;49.678;6.560;2023-04-03T05:21:15;100931.00;;;8.50
20092;BMP180;10205;49.678;6.560;2023-04-03T05:23:43;100937.00;;;8.50
20092;BMP180;10205;49.678;6.560;2023-04-03T05:26:11;100935.00;;;8.50
20092;BMP180;10205;49.678;6.560;2023-04-03T05:28:38;100932.00;;;8.50
20092;BMP180;10205;49.678;6.560;2023-04-03T05:31:05;100940.00;;;8.40
20092;BMP180;10205;49.678;6.560;2023-04-03T05:33:33;100937.00;;;8.40
20092;BMP180;10205;49.678;6.560;2023-04-03T05:36:03;100947.00;;;8.40
20092;BMP180;10205;49.678;6.560;2023-04-03T05:38:32;100947.00;;;8.30
20092;BMP180;10205;49.678;6.560;2023-04-03T05:41:03;100948.00;;;8.30
20092;BMP180;10205;49.678;6.560;2023-04-03T05:43:30;100945.00;;;8.30
20092;BMP180;10205;49.678;6.560;2023-04-03T05:45:58;100948.00;;;8.30
20092;BMP180;10205;49.678;6.560;2023-04-03T05:48:25;100957.00;;;8.30
20092;BMP180;10205;49.678;6.560;2023-04-03T05:50:54;100961.00;;;8.20
20092;BMP180;10205;49.678;6.560;2023-04-03T05:53:27;100980.00;;;8.20
20092;BMP180;10205;49.678;6.560;2023-04-03T05:55:55;100966.00;;;8.20
20092;BMP180;10205;49.678;6.560;2023-04-03T05:58:22;100963.00;;;8.10
20092;BMP180;10205;49.678;6.560;2023-04-03T06:00:49;100971.00;;;8.10
20092;BMP180;10205;49.678;6.560;2023-04-03T06:03:19;100971.00;;;8.10
20092;BMP180;10205;49.678;6.560;2023-04-03T06:05:47;100960.00;;;8.10
20092;BMP180;10205;49.678;6.560;2023-04-03T06:08:15;100975.00;;;8.00
20092;BMP180;10205;49.678;6.560;2023-04-03T06:10:43;100968.00;;;8.00
20092;BMP180;10205;49.678;6.560;2023-04-03T06:13:11;100981.00;;;7.90
20092;BMP180;10205;49.678;6.560;2023-04-03T06:15:38;100979.00;;;7.90
20092;BMP180;10205;49.678;6.560;2023-04-03T06:18:06;100986.00;;;7.80
20092;BMP180;10205;49.678;6.560;2023-04-03T06:20:34;100978.00;;;7.80
20092;BMP180;10205;49.678;6.560;2023-04-03T06:23:01;100980.00;;;7.80
20092;BMP180;10205;49.678;6.560;2023-04-03T06:25:31;100985.00;;;7.80
20092;BMP180;10205;49.678;6.560;2023-04-03T06:27:59;100983.00;;;7.70
20092;BMP180;10205;49.678;6.560;2023-04-03T06:30:29;100992.00;;;7.70
20092;BMP180;10205;49.678;6.560;2023-04-03T06:32:56;100989.00;;;7.70
20092;BMP180;10205;49.678;6.560;2023-04-03T06:35:25;100990.00;;;7.70
20092;BMP180;10205;49.678;6.560;2023-04-03T06:37:53;101001.00;;;7.70
20092;BMP180;10205;49.678;6.560;2023-04-03T06:40:25;100995.00;;;7.70
20092;BMP180;10205;49.678;6.560;2023-04-03T06:42:53;101001.00;;;7.70
20092;BMP180;10205;49.678;6.560;2023-04-03T06:45:20;100995.00;;;7.70
20092;BMP180;10205;49.678;6.560;2023-04-03T06:47:48;101001.00;;;7.70
20092;BMP180;10205;49.678;6.560;2023-04-03T06:50:15;100999.00;;;7.70
20092;BMP180;10205;49.678;6.560;2023-04-03T06:52:43;101002.00;;;7.70
20092;BMP180;10205;49.678;6.560;2023-04-03T06:55:10;100999.00;;;7.70
20092;BMP180;10205;49.678;6.560;2023-04-03T06:57:37;101008.00;;;7.70
20092;BMP180;10205;49.678;6.560;2023-04-03T07:00:07;101006.00;;;7.70
20092;BMP180;10205;49.678;6.560;2023-04-03T07:02:35;100995.00;;;7.70
20092;BMP180;10205;49.678;6.560;2023-04-03T07:05:04;100993.00;;;7.70
20092;BMP180;10205;49.678;6.560;2023-04-03T07:07:32;100999.00;;;7.70
20092;BMP180;10205;49.678;6.560;2023-04-03T07:10:00;100999.00;;;7.70
20092;BMP180;10205;49.678;6.560;2023-04-03T07:12:27;100997.00;;;7.70
20092;BMP180;10205;49.678;6.560;2023-04-03T07:14:54;100999.00;;;7.60
20092;BMP180;10205;49.678;6.560;2023-04-03T07:17:23;100993.00;;;7.70
20092;BMP180;10205;49.678;6.560;2023-04-03T07:19:51;101007.00;;;7.60
20092;BMP180;10205;49.678;6.560;2023-04-03T07:22:18;101006.00;;;7.70
20092;BMP180;10205;49.678;6.560;2023-04-03T07:24:46;101005.00;;;7.70
20092;BMP180;10205;49.678;6.560;2023-04-03T07:27:13;101005.00;;;7.70
20092;BMP180;10205;49.678;6.560;2023-04-03T07:29:41;101002.00;;;7.70
20092;BMP180;10205;49.678;6.560;2023-04-03T07:32:08;101020.00;;;7.70
20092;BMP180;10205;49.678;6.560;2023-04-03T07:34:37;101012.00;;;7.70
20092;BMP180;10205;49.678;6.560;2023-04-03T07:37:04;101009.00;;;7.70
20092;BMP180;10205;49.678;6.560;2023-04-03T07:39:33;101001.00;;;7.80
20092;BMP180;10205;49.678;6.560;2023-04-03T07:42:00;101005.00;;;7.80
20092;BMP180;10205;49.678;6.560;2023-04-03T07:44:28;101012.00;;;7.90
20092;BMP180;10205;49.678;6.560;2023-04-03T07:46:55;101015.00;;;7.90
20092;BMP180;10205;49.678;6.560;2023-04-03T07:49:22;101013.00;;;8.00
20092;BMP180;10205;49.678;6.560;2023-04-03T07:51:51;101002.00;;;8.00
20092;BMP180;10205;49.678;6.560;2023-04-03T07:54:18;101004.00;;;8.10
20092;BMP180;10205;49.678;6.560;2023-04-03T07:56:46;101015.00;;;8.10
20092;BMP180;10205;49.678;6.560;2023-04-03T07:59:14;101001.00;;;8.20
20092;BMP180;10205;49.678;6.560;2023-04-03T08:01:41;100999.00;;;8.20
20092;BMP180;10205;49.678;6.560;2023-04-03T08:04:08;101007.00;;;8.30
20092;BMP180;10205;49.678;6.560;2023-04-03T08:06:36;100994.00;;;8.30
20092;BMP180;10205;49.678;6.560;2023-04-03T08:09:04;100991.00;;;8.40
20092;BMP180;10205;49.678;6.560;2023-04-03T08:11:32;101000.00;;;8.50
20092;BMP180;10205;49.678;6.560;2023-04-03T08:14:00;101012.00;;;8.50
20092;BMP180;10205;49.678;6.560;2023-04-03T08:16:28;100999.00;;;8.60
20092;BMP180;10205;49.678;6.560;2023-04-03T08:18:55;101002.00;;;8.60
20092;BMP180;10205;49.678;6.560;2023-04-03T08:21:22;100994.00;;;8.70
20092;BMP180;10205;49.678;6.560;2023-04-03T08:23:50;100996.00;;;8.70
20092;BMP180;10205;49.678;6.560;2023-04-03T08:26:21;100997.00;;;8.80
20092;BMP180;10205;49.678;6.560;2023-04-03T08:28:48;100997.00;;;8.90
20092;BMP180;10205;49.678;6.560;2023-04-03T08:31:19;100991.00;;;8.90
20092;BMP180;10205;49.678;6.560;2023-04-03T08:33:47;101001.00;;;9.00
20092;BMP180;10205;49.678;6.560;2023-04-03T08:36:22;100994.00;;;9.10
20092;BMP180;10205;49.678;6.560;2023-04-03T08:38:50;100997.00;;;9.20
20092;BMP180;10205;49.678;6.560;2023-04-03T08:41:29;100998.00;;;9.30
20092;BMP180;10205;49.678;6.560;2023-04-03T08:44:14;101001.00;;;9.40
20092;BMP180;10205;49.678;6.560;2023-04-03T08:47:11;101007.00;;;9.40
20092;BMP180;10205;49.678;6.560;2023-04-03T08:49:44;101016.00;;;9.50
20092;BMP180;10205;49.678;6.560;2023-04-03T08:52:20;101010.00;;;9.60
20092;BMP180;10205;49.678;6.560;2023-04-03T08:54:53;101013.00;;;9.70
20092;BMP180;10205;49.678;6.560;2023-04-03T08:57:29;101017.00;;;9.70
20092;BMP180;10205;49.678;6.560;2023-04-03T09:00:03;101026.00;;;9.80
20092;BMP180;10205;49.678;6.560;2023-04-03T09:02:36;101018.00;;;9.90
20092;BMP180;10205;49.678;6.560;2023-04-03T09:05:13;101002.00;;;10.00
20092;BMP180;10205;49.678;6.560;2023-04-03T09:07:45;101011.00;;;10.10
20092;BMP180;10205;49.678;6.560;2023-04-03T09:10:18;101013.00;;;10.10
20092;BMP180;10205;49.678;6.560;2023-04-03T09:12:59;101012.00;;;10.20
20092;BMP180;10205;49.678;6.560;2023-04-03T09:15:28;101005.00;;;10.30
20092;BMP180;10205;49.678;6.560;2023-04-03T09:18:05;101002.00;;;10.40
20092;BMP180;10205;49.678;6.560;2023-04-03T09:20:46;101008.00;;;10.50
20092;BMP180;10205;49.678;6.560;2023-04-03T09:23:23;100996.00;;;10.50
20092;BMP180;10205;49.678;6.560;2023-04-03T09:25:58;100990.00;;;10.60
20092;BMP180;10205;49.678;6.560;2023-04-03T09:28:34;100989.00;;;10.70
20092;BMP180;10205;49.678;6.560;2023-04-03T09:31:15;100993.00;;;10.80
20092;BMP180;10205;49.678;6.560;2023-04-03T09:33:43;100999.00;;;10.90
20092;BMP180;10205;49.678;6.560;2023-04-03T09:36:11;100989.00;;;10.90
20092;BMP180;10205;49.678;6.560;2023-04-03T09:38:39;100988.00;;;11.00
20092;BMP180;10205;49.678;6.560;2023-04-03T09:41:13;100992.00;;;11.00
20092;BMP180;10205;49.678;6.560;2023-04-03T09:43:53;100987.00;;;11.10
20092;BMP180;10205;49.678;6.560;2023-04-03T09:46:32;100985.00;;;11.10
20092;BMP180;10205;49.678;6.560;2023-04-03T09:49:03;100989.00;;;11.20
20092;BMP180;10205;49.678;6.560;2023-04-03T09:51:31;100976.00;;;11.20
20092;BMP180;10205;49.678;6.560;2023-04-03T09:53:59;100976.00;;;11.30
20092;BMP180;10205;49.678;6.560;2023-04-03T09:56:28;100973.00;;;11.40
20092;BMP180;10205;49.678;6.560;2023-04-03T09:59:18;100977.00;;;11.50
20092;BMP180;10205;49.678;6.560;2023-04-03T10:02:00;100985.00;;;11.50
20092;BMP180;10205;49.678;6.560;2023-04-03T10:04:38;100993.00;;;11.60
20092;BMP180;10205;49.678;6.560;2023-04-03T10:07:30;100990.00;;;11.70
20092;BMP180;10205;49.678;6.560;2023-04-03T10:10:00;100976.00;;;11.80
20092;BMP180;10205;49.678;6.560;2023-04-03T10:12:29;100968.00;;;11.90
20092;BMP180;10205;49.678;6.560;2023-04-03T10:14:59;100974.00;;;12.00
20092;BMP180;10205;49.678;6.560;2023-04-03T10:17:43;100978.00;;;12.10
20092;BMP180;10205;49.678;6.560;2023-04-03T10:20:28;100978.00;;;12.20
20092;BMP180;10205;49.678;6.560;2023-04-03T10:23:15;100969.00;;;12.30
20092;BMP180;10205;49.678;6.560;2023-04-03T10:25:59;100962.00;;;12.40
20092;BMP180;10205;49.678;6.560;2023-04-03T10:28:39;100965.00;;;12.50
20092;BMP180;10205;49.678;6.560;2023-04-03T10:31:20;100975.00;;;12.60
20092;BMP180;10205;49.678;6.560;2023-04-03T10:34:01;100963.00;;;12.70
20092;BMP180;10205;49.678;6.560;2023-04-03T10:36:41;100968.00;;;12.70
20092;BMP180;10205;49.678;6.560;2023-04-03T10:39:25;100969.00;;;12.80
20092;BMP180;10205;49.678;6.560;2023-04-03T10:42:03;100972.00;;;12.90
20092;BMP180;10205;49.678;6.560;2023-04-03T10:44:52;100964.00;;;13.00
20092;BMP180;10205;49.678;6.560;2023-04-03T10:47:30;100966.00;;;13.10
20092;BMP180;10205;49.678;6.560;2023-04-03T10:50:13;100960.00;;;13.10
20092;BMP180;10205;49.678;6.560;2023-04-03T10:52:54;100962.00;;;13.20
20092;BMP180;10205;49.678;6.560;2023-04-03T10:55:35;100955.00;;;13.30
20092;BMP180;10205;49.678;6.560;2023-04-03T10:58:06;100958.00;;;13.40
20092;BMP180;10205;49.678;6.560;2023-04-03T11:00:42;100956.00;;;13.50
20092;BMP180;10205;49.678;6.560;2023-04-03T11:03:17;100957.00;;;13.60
20092;BMP180;10205;49.678;6.560;2023-04-03T11:05:53;100954.00;;;13.60
20092;BMP180;10205;49.678;6.560;2023-04-03T11:08:28;100962.00;;;13.70
20092;BMP180;10205;49.678;6.560;2023-04-03T11:11:04;100956.00;;;13.80
20092;BMP180;10205;49.678;6.560;2023-04-03T11:13:38;100962.00;;;13.80
20092;BMP180;10205;49.678;6.560;2023-04-03T11:16:09;100942.00;;;13.90
20092;BMP180;10205;49.678;6.560;2023-04-03T11:18:48;100935.00;;;13.90
20092;BMP180;10205;49.678;6.560;2023-04-03T11:21:21;100940.00;;;14.00
20092;BMP180;10205;49.678;6.560;2023-04-03T11:23:51;100930.00;;;14.00
20092;BMP180;10205;49.678;6.560;2023-04-03T11:26:27;100934.00;;;14.10
20092;BMP180;10205;49.678;6.560;2023-04-03T11:29:01;100937.00;;;14.20
20092;BMP180;10205;49.678;6.560;2023-04-03T11:31:45;100939.00;;;14.20
20092;BMP180;10205;49.678;6.560;2023-04-03T11:34:33;100929.00;;;14.30
20092;BMP180;10205;49.678;6.560;2023-04-03T11:37:16;100929.00;;;14.30
20092;BMP180;10205;49.678;6.560;2023-04-03T11:39:54;100928.00;;;14.30
20092;BMP180;10205;49.678;6.560;2023-04-03T11:42:37;100926.00;;;14.40
20092;BMP180;10205;49.678;6.560;2023-04-03T11:45:31;100920.00;;;14.40
20092;BMP180;10205;49.678;6.560;2023-04-03T11:48:06;100927.00;;;14.40
20092;BMP180;10205;49.678;6.560;2023-04-03T11:50:43;100910.00;;;14.50
20092;BMP180;10205;49.678;6.560;2023-04-03T11:53:33;100919.00;;;14.50
20092;BMP180;10205;49.678;6.560;2023-04-03T11:56:27;100921.00;;;14.60
20092;BMP180;10205;49.678;6.560;2023-04-03T11:59:23;100932.00;;;14.60
20092;BMP180;10205;49.678;6.560;2023-04-03T12:01:52;100907.00;;;14.70
20092;BMP180;10205;49.678;6.560;2023-04-03T12:04:23;100904.00;;;14.70
20092;BMP180;10205;49.678;6.560;2023-04-03T12:07:02;100903.00;;;14.70
20092;BMP180;10205;49.678;6.560;2023-04-03T12:09:58;100907.00;;;14.70
20092;BMP180;10205;49.678;6.560;2023-04-03T12:12:36;100909.00;;;14.80
20092;BMP180;10205;49.678;6.560;2023-04-03T12:15:51;100909.00;;;14.80
20092;BMP180;10205;49.678;6.560;2023-04-03T12:19:00;100900.00;;;14.80
20092;BMP180;10205;49.678;6.560;2023-04-03T12:22:12;100894.00;;;14.90
20092;BMP180;10205;49.678;6.560;2023-04-03T12:24:40;100885.00;;;14.90
20092;BMP180;10205;49.678;6.560;2023-04-03T12:27:33;100895.00;;;14.90
20092;BMP180;10205;49.678;6.560;2023-04-03T12:30:20;100894.00;;;14.90
20092;BMP180;10205;49.678;6.560;2023-04-03T12:33:26;100892.00;;;14.90
20092;BMP180;10205;49.678;6.560;2023-04-03T12:36:05;100884.00;;;15.00
20092;BMP180;10205;49.678;6.560;2023-04-03T12:39:09;100873.00;;;15.00
20092;BMP180;10205;49.678;6.560;2023-04-03T12:41:52;100870.00;;;15.10
20092;BMP180;10205;49.678;6.560;2023-04-03T12:44:47;100883.00;;;15.10
20092;BMP180;10205;49.678;6.560;2023-04-03T12:47:28;100871.00;;;15.00
20092;BMP180;10205;49.678;6.560;2023-04-03T12:50:00;100865.00;;;15.10
20092;BMP180;10205;49.678;6.560;2023-04-03T12:52:37;100858.00;;;15.10
20092;BMP180;10205;49.678;6.560;2023-04-03T12:55:16;100854.00;;;15.10
20092;BMP180;10205;49.678;6.560;2023-04-03T12:57:44;100862.00;;;15.10
20092;BMP180;10205;49.678;6.560;2023-04-03T13:00:34;100861.00;;;15.20
20092;BMP180;10205;49.678;6.560;2023-04-03T13:03:06;100853.00;;;15.20
20092;BMP180;10205;49.678;6.560;2023-04-03T13:05:45;100858.00;;;15.20
20092;BMP180;10205;49.678;6.560;2023-04-03T13:08:14;100861.00;;;15.20
20092;BMP180;10205;49.678;6.560;2023-04-03T13:10:55;100864.00;;;15.20
20092;BMP180;10205;49.678;6.560;2023-04-03T13:13:23;100863.00;;;15.30
20092;BMP180;10205;49.678;6.560;2023-04-03T13:15:52;100848.00;;;15.30
20092;BMP180;10205;49.678;6.560;2023-04-03T13:18:30;100846.00;;;15.30
20092;BMP180;10205;49.678;6.560;2023-04-03T13:21:04;100851.00;;;15.40
20092;BMP180;10205;49.678;6.560;2023-04-03T13:23:34;100871.00;;;15.40
20092;BMP180;10205;49.678;6.560;2023-04-03T13:26:04;100854.00;;;15.40
20092;BMP180;10205;49.678;6.560;2023-04-03T13:28:36;100839.00;;;15.40
20092;BMP180;10205;49.678;6.560;2023-04-03T13:31:08;100832.00;;;15.40
20092;BMP180;10205;49.678;6.560;2023-04-03T13:33:56;100860.00;;;15.40
20092;BMP180;10205;49.678;6.560;2023-04-03T13:36:28;100847.00;;;15.40
20092;BMP180;10205;49.678;6.560;2023-04-03T13:39:04;100849.00;;;15.40
20092;BMP180;10205;49.678;6.560;2023-04-03T13:41:35;100844.00;;;15.40
20092;BMP180;10205;49.678;6.560;2023-04-03T13:44:26;100849.00;;;15.40
20092;BMP180;10205;49.678;6.560;2023-04-03T13:46:55;100846.00;;;15.40
20092;BMP180;10205;49.678;6.560;2023-04-03T13:49:33;100837.00;;;15.40
20092;BMP180;10205;49.678;6.560;2023-04-03T13:52:03;100844.00;;;15.50
20092;BMP180;10205;49.678;6.560;2023-04-03T13:54:52;100826.00;;;15.50
20092;BMP180;10205;49.678;6.560;2023-04-03T13:57:22;100836.00;;;15.50
20092;BMP180;10205;49.678;6.560;2023-04-03T13:59:49;100825.00;;;15.50
20092;BMP180;10205;49.678;6.560;2023-04-03T14:02:22;100826.00;;;15.50
20092;BMP180;10205;49.678;6.560;2023-04-03T14:04:59;100826.00;;;15.40
20092;BMP180;10205;49.678;6.560;2023-04-03T14:07:29;100830.00;;;15.50
20092;BMP180;10205;49.678;6.560;2023-04-03T14:09:57;100826.00;;;15.40
20092;BMP180;10205;49.678;6.560;2023-04-03T14:12:30;100812.00;;;15.50
20092;BMP180;10205;49.678;6.560;2023-04-03T14:15:02;100811.00;;;15.50
20092;BMP180;10205;49.678;6.560;2023-04-03T14:17:29;100824.00;;;15.50
20092;BMP180;10205;49.678;6.560;2023-04-03T14:19:58;100814.00;;;15.50
20092;BMP180;10205;49.678;6.560;2023-04-03T14:22:30;100812.00;;;15.50
20092;BMP180;10205;49.678;6.560;2023-04-03T14:24:59;100825.00;;;15.50
20092;BMP180;10205;49.678;6.560;2023-04-03T14:27:34;100808.00;;;15.40
20092;BMP180;10205;49.678;6.560;2023-04-03T14:30:03;100794.00;;;15.40
20092;BMP180;10205;49.678;6.560;2023-04-03T14:32:32;100812.00;;;15.40